sensor_id;sensor_type;location;lat;lon;timestamp;P1;durP1;ratioP1;P2;durP2;ratioP2
55069;SDS011;40967;52.070;8.596;2022-10-16T00:01:23;1.60;;;0.90;;
55069;SDS011;40967;52.070;8.596;2022-10-16T00:03:51;1.65;;;0.90;;
55069;SDS011;40967;52.070;8.596;2022-10-16T00:06:17;1.52;;;0.90;;
55069;SDS011;40967;52.070;8.596;2022-10-16T00:08:45;1.45;;;0.80;;
55069;SDS011;40967;52.070;8.596;2022-10-16T00:11:15;1.75;;;0.95;;
55069;SDS011;40967;52.070;8.596;2022-10-16T00:13:44;1.40;;;0.80;;
55069;SDS011;40967;52.070;8.596;2022-10-16T00:16:11;1.80;;;0.90;;
55069;SDS011;40967;52.070;8.596;2022-10-16T00:18:37;1.87;;;1.03;;
55069;SDS011;40967;52.070;8.596;2022-10-16T00:21:05;1.70;;;1.00;;
55069;SDS011;40967;52.070;8.596;2022-10-16T00:23:32;2.20;;;1.00;;
55069;SDS011;40967;52.070;8.596;2022-10-16T00:25:59;1.70;;;0.95;;
55069;SDS011;40967;52.070;8.596;2022-10-16T00:28:26;1.23;;;0.75;;
55069;SDS011;40967;52.070;8.596;2022-10-16T00:30:52;1.77;;;1.02;;
55069;SDS011;40967;52.070;8.596;2022-10-16T00:33:18;2.00;;;1.08;;
55069;SDS011;40967;52.070;8.596;2022-10-16T00:35:44;1.33;;;0.80;;
55069;SDS011;40967;52.070;8.596;2022-10-16T00:38:10;1.80;;;0.90;;
55069;SDS011;40967;52.070;8.596;2022-10-16T00:40:35;1.60;;;1.00;;
55069;SDS011;40967;52.070;8.596;2022-10-16T00:43:01;1.40;;;1.00;;
55069;SDS011;40967;52.070;8.596;2022-10-16T00:45:26;1.60;;;0.80;;
55069;SDS011;40967;52.070;8.596;2022-10-16T00:47:52;1.23;;;0.80;;
55069;SDS011;40967;52.070;8.596;2022-10-16T00:50:27;1.80;;;1.10;;
55069;SDS011;40967;52.070;8.596;2022-10-16T00:52:54;1.83;;;0.90;;
55069;SDS011;40967;52.070;8.596;2022-10-16T00:55:22;1.30;;;0.80;;
55069;SDS011;40967;52.070;8.596;2022-10-16T00:57:48;1.50;;;0.80;;
55069;SDS011;40967;52.070;8.596;2022-10-16T01:00:16;1.55;;;0.80;;
55069;SDS011;40967;52.070;8.596;2022-10-16T01:02:51;1.50;;;0.85;;
55069;SDS011;40967;52.070;8.596;2022-10-16T01:05:17;1.08;;;0.60;;
55069;SDS011;40967;52.070;8.596;2022-10-16T01:07:49;1.33;;;0.70;;
55069;SDS011;40967;52.070;8.596;2022-10-16T01:10:40;1.30;;;0.77;;
55069;SDS011;40967;52.070;8.596;2022-10-16T01:13:24;1.00;;;0.60;;
55069;SDS011;40967;52.070;8.596;2022-10-16T01:16:06;1.90;;;0.90;;
55069;SDS011;40967;52.070;8.596;2022-10-16T01:18:45;2.30;;;1.10;;
55069;SDS011;40967;52.070;8.596;2022-10-16T01:26:44;1.85;;;0.98;;
55069;SDS011;40967;52.070;8.596;2022-10-16T01:32:36;1.40;;;0.80;;
55069;SDS011;40967;52.070;8.596;2022-10-16T01:37:38;1.55;;;0.85;;
55069;SDS011;40967;52.070;8.596;2022-10-16T01:40:09;1.50;;;0.90;;
55069;SDS011;40967;52.070;8.596;2022-10-16T01:42:39;1.00;;;0.60;;
55069;SDS011;40967;52.070;8.596;2022-10-16T01:45:08;1.40;;;0.80;;
55069;SDS011;40967;52.070;8.596;2022-10-16T01:47:36;0.80;;;0.50;;
55069;SDS011;40967;52.070;8.596;2022-10-16T01:50:03;1.00;;;0.70;;
55069;SDS011;40967;52.070;8.596;2022-10-16T01:52:29;1.45;;;0.70;;
55069;SDS011;40967;52.070;8.596;2022-10-16T01:54:59;1.35;;;0.68;;
55069;SDS011;40967;52.070;8.596;2022-10-16T01:57:27;1.08;;;0.70;;
55069;SDS011;40967;52.070;8.596;2022-10-16T01:59:56;1.08;;;0.70;;
55069;SDS011;40967;52.070;8.596;2022-10-16T02:02:26;1.27;;;0.80;;
55069;SDS011;40967;52.070;8.596;2022-10-16T02:04:57;1.05;;;0.63;;
55069;SDS011;40967;52.070;8.596;2022-10-16T02:07:27;0.93;;;0.70;;
55069;SDS011;40967;52.070;8.596;2022-10-16T02:09:53;1.13;;;0.70;;
55069;SDS011;40967;52.070;8.596;2022-10-16T02:12:22;1.10;;;0.70;;
55069;SDS011;40967;52.070;8.596;2022-10-16T02:14:52;1.13;;;0.70;;
55069;SDS011;40967;52.070;8.596;2022-10-16T02:17:18;1.25;;;0.75;;
55069;SDS011;40967;52.070;8.596;2022-10-16T02:19:44;1.13;;;0.65;;
55069;SDS011;40967;52.070;8.596;2022-10-16T02:22:15;1.95;;;0.90;;
55069;SDS011;40967;52.070;8.596;2022-10-16T02:30:00;1.27;;;0.80;;
55069;SDS011;40967;52.070;8.596;2022-10-16T02:32:33;1.10;;;0.60;;
55069;SDS011;40967;52.070;8.596;2022-10-16T02:35:00;1.00;;;0.50;;
55069;SDS011;40967;52.070;8.596;2022-10-16T02:37:27;1.02;;;0.60;;
55069;SDS011;40967;52.070;8.596;2022-10-16T02:39:55;1.20;;;0.60;;
55069;SDS011;40967;52.070;8.596;2022-10-16T02:42:42;1.10;;;0.57;;
55069;SDS011;40967;52.070;8.596;2022-10-16T02:45:09;1.10;;;0.60;;
55069;SDS011;40967;52.070;8.596;2022-10-16T02:47:36;0.85;;;0.60;;
55069;SDS011;40967;52.070;8.596;2022-10-16T02:50:03;0.90;;;0.60;;
55069;SDS011;40967;52.070;8.596;2022-10-16T02:52:33;1.00;;;0.50;;
55069;SDS011;40967;52.070;8.596;2022-10-16T02:55:03;0.75;;;0.60;;
55069;SDS011;40967;52.070;8.596;2022-10-16T02:57:55;0.60;;;0.40;;
55069;SDS011;40967;52.070;8.596;2022-10-16T03:00:21;0.73;;;0.50;;
55069;SDS011;40967;52.070;8.596;2022-10-16T03:02:47;1.02;;;0.50;;
55069;SDS011;40967;52.070;8.596;2022-10-16T03:05:21;0.83;;;0.47;;
55069;SDS011;40967;52.070;8.596;2022-10-16T03:07:50;0.50;;;0.40;;
55069;SDS011;40967;52.070;8.596;2022-10-16T03:10:17;0.82;;;0.50;;
55069;SDS011;40967;52.070;8.596;2022-10-16T03:12:42;0.53;;;0.30;;
55069;SDS011;40967;52.070;8.596;2022-10-16T03:15:08;0.67;;;0.40;;
55069;SDS011;40967;52.070;8.596;2022-10-16T03:17:34;0.50;;;0.40;;
55069;SDS011;40967;52.070;8.596;2022-10-16T03:19:59;0.70;;;0.40;;
55069;SDS011;40967;52.070;8.596;2022-10-16T03:22:24;0.40;;;0.40;;
55069;SDS011;40967;52.070;8.596;2022-10-16T03:24:50;0.60;;;0.43;;
55069;SDS011;40967;52.070;8.596;2022-10-16T03:27:15;0.60;;;0.40;;
55069;SDS011;40967;52.070;8.596;2022-10-16T03:29:41;0.70;;;0.40;;
55069;SDS011;40967;52.070;8.596;2022-10-16T03:32:06;0.60;;;0.30;;
55069;SDS011;40967;52.070;8.596;2022-10-16T03:34:31;0.97;;;0.47;;
55069;SDS011;40967;52.070;8.596;2022-10-16T03:36:57;0.90;;;0.40;;
55069;SDS011;40967;52.070;8.596;2022-10-16T03:39:22;0.80;;;0.47;;
55069;SDS011;40967;52.070;8.596;2022-10-16T03:41:48;0.95;;;0.52;;
55069;SDS011;40967;52.070;8.596;2022-10-16T03:44:13;0.97;;;0.50;;
55069;SDS011;40967;52.070;8.596;2022-10-16T03:46:39;0.60;;;0.40;;
55069;SDS011;40967;52.070;8.596;2022-10-16T03:49:04;0.75;;;0.40;;
55069;SDS011;40967;52.070;8.596;2022-10-16T03:51:30;0.93;;;0.50;;
55069;SDS011;40967;52.070;8.596;2022-10-16T03:53:55;1.10;;;0.40;;
55069;SDS011;40967;52.070;8.596;2022-10-16T03:56:21;0.80;;;0.47;;
55069;SDS011;40967;52.070;8.596;2022-10-16T03:58:46;0.60;;;0.50;;
55069;SDS011;40967;52.070;8.596;2022-10-16T04:01:11;0.97;;;0.37;;
55069;SDS011;40967;52.070;8.596;2022-10-16T04:03:37;0.70;;;0.50;;
55069;SDS011;40967;52.070;8.596;2022-10-16T04:06:02;0.67;;;0.40;;
55069;SDS011;40967;52.070;8.596;2022-10-16T04:08:27;0.60;;;0.50;;
55069;SDS011;40967;52.070;8.596;2022-10-16T04:10:53;0.57;;;0.40;;
55069;SDS011;40967;52.070;8.596;2022-10-16T04:13:18;0.83;;;0.50;;
55069;SDS011;40967;52.070;8.596;2022-10-16T04:15:44;0.85;;;0.43;;
55069;SDS011;40967;52.070;8.596;2022-10-16T04:18:10;1.30;;;0.80;;
55069;SDS011;40967;52.070;8.596;2022-10-16T04:20:36;0.70;;;0.50;;
55069;SDS011;40967;52.070;8.596;2022-10-16T04:23:01;0.60;;;0.60;;
55069;SDS011;40967;52.070;8.596;2022-10-16T04:25:27;0.57;;;0.40;;
55069;SDS011;40967;52.070;8.596;2022-10-16T04:27:52;0.80;;;0.50;;
55069;SDS011;40967;52.070;8.596;2022-10-16T04:30:18;1.10;;;0.68;;
55069;SDS011;40967;52.070;8.596;2022-10-16T04:32:47;1.07;;;0.57;;
55069;SDS011;40967;52.070;8.596;2022-10-16T04:35:13;0.50;;;0.40;;
55069;SDS011;40967;52.070;8.596;2022-10-16T04:37:39;0.60;;;0.40;;
55069;SDS011;40967;52.070;8.596;2022-10-16T04:40:04;1.30;;;0.53;;
55069;SDS011;40967;52.070;8.596;2022-10-16T04:42:30;0.50;;;0.40;;
55069;SDS011;40967;52.070;8.596;2022-10-16T04:44:55;0.60;;;0.40;;
55069;SDS011;40967;52.070;8.596;2022-10-16T04:47:21;0.63;;;0.30;;
55069;SDS011;40967;52.070;8.596;2022-10-16T04:49:46;0.50;;;0.37;;
55069;SDS011;40967;52.070;8.596;2022-10-16T04:52:12;0.80;;;0.50;;
55069;SDS011;40967;52.070;8.596;2022-10-16T04:54:37;0.77;;;0.43;;
55069;SDS011;40967;52.070;8.596;2022-10-16T04:57:02;0.70;;;0.40;;
55069;SDS011;40967;52.070;8.596;2022-10-16T04:59:29;0.70;;;0.40;;
55069;SDS011;40967;52.070;8.596;2022-10-16T05:01:55;0.40;;;0.30;;
55069;SDS011;40967;52.070;8.596;2022-10-16T05:04:20;0.95;;;0.40;;
55069;SDS011;40967;52.070;8.596;2022-10-16T05:06:47;0.30;;;0.30;;
55069;SDS011;40967;52.070;8.596;2022-10-16T05:09:22;0.65;;;0.40;;
55069;SDS011;40967;52.070;8.596;2022-10-16T05:11:48;1.00;;;0.50;;
55069;SDS011;40967;52.070;8.596;2022-10-16T05:14:13;0.82;;;0.43;;
55069;SDS011;40967;52.070;8.596;2022-10-16T05:16:39;0.40;;;0.33;;
55069;SDS011;40967;52.070;8.596;2022-10-16T05:19:04;0.60;;;0.30;;
55069;SDS011;40967;52.070;8.596;2022-10-16T05:21:29;0.40;;;0.30;;
55069;SDS011;40967;52.070;8.596;2022-10-16T05:23:55;0.37;;;0.30;;
55069;SDS011;40967;52.070;8.596;2022-10-16T05:26:20;0.40;;;0.30;;
55069;SDS011;40967;52.070;8.596;2022-10-16T05:28:46;0.60;;;0.28;;
55069;SDS011;40967;52.070;8.596;2022-10-16T05:31:12;0.30;;;0.20;;
55069;SDS011;40967;52.070;8.596;2022-10-16T05:33:37;0.43;;;0.33;;
55069;SDS011;40967;52.070;8.596;2022-10-16T05:36:04;0.50;;;0.30;;
55069;SDS011;40967;52.070;8.596;2022-10-16T05:38:33;0.47;;;0.30;;
55069;SDS011;40967;52.070;8.596;2022-10-16T05:41:12;0.57;;;0.30;;
55069;SDS011;40967;52.070;8.596;2022-10-16T05:43:49;0.45;;;0.30;;
55069;SDS011;40967;52.070;8.596;2022-10-16T05:46:18;0.20;;;0.20;;
55069;SDS011;40967;52.070;8.596;2022-10-16T05:48:55;0.43;;;0.30;;
55069;SDS011;40967;52.070;8.596;2022-10-16T05:51:30;0.50;;;0.30;;
55069;SDS011;40967;52.070;8.596;2022-10-16T05:54:01;0.30;;;0.20;;
55069;SDS011;40967;52.070;8.596;2022-10-16T05:56:31;0.70;;;0.30;;
55069;SDS011;40967;52.070;8.596;2022-10-16T05:58:56;0.27;;;0.20;;
55069;SDS011;40967;52.070;8.596;2022-10-16T06:01:21;0.27;;;0.20;;
55069;SDS011;40967;52.070;8.596;2022-10-16T06:03:49;0.30;;;0.30;;
55069;SDS011;40967;52.070;8.596;2022-10-16T06:06:21;0.30;;;0.30;;
55069;SDS011;40967;52.070;8.596;2022-10-16T06:08:48;0.50;;;0.30;;
55069;SDS011;40967;52.070;8.596;2022-10-16T06:11:15;0.30;;;0.30;;
55069;SDS011;40967;52.070;8.596;2022-10-16T06:13:55;0.17;;;0.17;;
55069;SDS011;40967;52.070;8.596;2022-10-16T06:16:23;0.38;;;0.30;;
55069;SDS011;40967;52.070;8.596;2022-10-16T06:18:50;0.20;;;0.20;;
55069;SDS011;40967;52.070;8.596;2022-10-16T06:21:18;0.20;;;0.20;;
55069;SDS011;40967;52.070;8.596;2022-10-16T06:23:51;0.35;;;0.20;;
55069;SDS011;40967;52.070;8.596;2022-10-16T06:26:18;0.20;;;0.20;;
55069;SDS011;40967;52.070;8.596;2022-10-16T06:28:45;0.10;;;0.10;;
55069;SDS011;40967;52.070;8.596;2022-10-16T06:31:12;0.30;;;0.28;;
55069;SDS011;40967;52.070;8.596;2022-10-16T06:33:38;0.20;;;0.20;;
55069;SDS011;40967;52.070;8.596;2022-10-16T06:36:06;0.55;;;0.28;;
55069;SDS011;40967;52.070;8.596;2022-10-16T06:38:36;0.30;;;0.27;;
55069;SDS011;40967;52.070;8.596;2022-10-16T06:41:01;0.50;;;0.30;;
55069;SDS011;40967;52.070;8.596;2022-10-16T06:43:30;0.40;;;0.20;;
55069;SDS011;40967;52.070;8.596;2022-10-16T06:45:57;0.32;;;0.30;;
55069;SDS011;40967;52.070;8.596;2022-10-16T06:48:31;0.50;;;0.40;;
55069;SDS011;40967;52.070;8.596;2022-10-16T06:51:21;0.50;;;0.30;;
55069;SDS011;40967;52.070;8.596;2022-10-16T06:53:54;0.38;;;0.30;;
55069;SDS011;40967;52.070;8.596;2022-10-16T06:56:22;0.22;;;0.22;;
55069;SDS011;40967;52.070;8.596;2022-10-16T06:58:51;0.30;;;0.20;;
55069;SDS011;40967;52.070;8.596;2022-10-16T07:02:21;0.77;;;0.30;;
55069;SDS011;40967;52.070;8.596;2022-10-16T07:04:45;0.63;;;0.30;;
55069;SDS011;40967;52.070;8.596;2022-10-16T07:07:11;0.30;;;0.30;;
55069;SDS011;40967;52.070;8.596;2022-10-16T07:09:53;0.20;;;0.20;;
55069;SDS011;40967;52.070;8.596;2022-10-16T07:12:24;0.55;;;0.20;;
55069;SDS011;40967;52.070;8.596;2022-10-16T07:14:57;0.40;;;0.20;;
55069;SDS011;40967;52.070;8.596;2022-10-16T07:17:42;0.38;;;0.30;;
55069;SDS011;40967;52.070;8.596;2022-10-16T07:20:24;0.25;;;0.20;;
55069;SDS011;40967;52.070;8.596;2022-10-16T07:23:16;0.20;;;0.20;;
55069;SDS011;40967;52.070;8.596;2022-10-16T07:25:42;0.57;;;0.30;;
55069;SDS011;40967;52.070;8.596;2022-10-16T07:28:19;0.32;;;0.30;;
55069;SDS011;40967;52.070;8.596;2022-10-16T07:30:45;0.50;;;0.30;;
55069;SDS011;40967;52.070;8.596;2022-10-16T07:33:11;0.65;;;0.40;;
55069;SDS011;40967;52.070;8.596;2022-10-16T07:35:50;1.00;;;0.60;;
55069;SDS011;40967;52.070;8.596;2022-10-16T07:38:17;0.63;;;0.45;;
55069;SDS011;40967;52.070;8.596;2022-10-16T07:56:44;0.60;;;0.33;;
55069;SDS011;40967;52.070;8.596;2022-10-16T07:59:10;0.82;;;0.50;;
55069;SDS011;40967;52.070;8.596;2022-10-16T08:02:07;1.05;;;0.40;;
55069;SDS011;40967;52.070;8.596;2022-10-16T08:04:36;0.55;;;0.30;;
55069;SDS011;40967;52.070;8.596;2022-10-16T08:07:02;0.47;;;0.38;;
55069;SDS011;40967;52.070;8.596;2022-10-16T08:09:32;0.30;;;0.30;;
55069;SDS011;40967;52.070;8.596;2022-10-16T08:12:02;0.57;;;0.32;;
55069;SDS011;40967;52.070;8.596;2022-10-16T08:14:33;1.20;;;0.40;;
55069;SDS011;40967;52.070;8.596;2022-10-16T08:19:46;0.60;;;0.30;;
55069;SDS011;40967;52.070;8.596;2022-10-16T08:22:17;0.40;;;0.30;;
55069;SDS011;40967;52.070;8.596;2022-10-16T08:24:52;1.00;;;0.40;;
55069;SDS011;40967;52.070;8.596;2022-10-16T08:27:20;1.52;;;0.63;;
55069;SDS011;40967;52.070;8.596;2022-10-16T08:29:50;1.13;;;0.50;;
55069;SDS011;40967;52.070;8.596;2022-10-16T08:32:22;2.42;;;0.73;;
55069;SDS011;40967;52.070;8.596;2022-10-16T08:35:01;0.77;;;0.40;;
55069;SDS011;40967;52.070;8.596;2022-10-16T08:37:31;1.77;;;0.80;;
55069;SDS011;40967;52.070;8.596;2022-10-16T08:41:09;1.45;;;0.70;;
55069;SDS011;40967;52.070;8.596;2022-10-16T08:49:20;1.58;;;0.40;;
55069;SDS011;40967;52.070;8.596;2022-10-16T08:52:10;0.95;;;0.50;;
55069;SDS011;40967;52.070;8.596;2022-10-16T08:54:41;0.68;;;0.40;;
55069;SDS011;40967;52.070;8.596;2022-10-16T08:57:29;2.58;;;0.75;;
55069;SDS011;40967;52.070;8.596;2022-10-16T09:00:13;2.45;;;0.60;;
55069;SDS011;40967;52.070;8.596;2022-10-16T09:02:52;1.20;;;0.40;;
55069;SDS011;40967;52.070;8.596;2022-10-16T09:06:17;1.43;;;0.50;;
55069;SDS011;40967;52.070;8.596;2022-10-16T09:11:45;1.52;;;0.60;;
55069;SDS011;40967;52.070;8.596;2022-10-16T09:19:46;1.95;;;0.52;;
55069;SDS011;40967;52.070;8.596;2022-10-16T09:22:32;1.25;;;0.50;;
55069;SDS011;40967;52.070;8.596;2022-10-16T09:25:10;3.50;;;0.60;;
55069;SDS011;40967;52.070;8.596;2022-10-16T09:27:38;1.27;;;0.60;;
55069;SDS011;40967;52.070;8.596;2022-10-16T09:30:12;1.60;;;0.63;;
55069;SDS011;40967;52.070;8.596;2022-10-16T09:32:38;0.82;;;0.50;;
55069;SDS011;40967;52.070;8.596;2022-10-16T09:35:19;2.05;;;0.60;;
55069;SDS011;40967;52.070;8.596;2022-10-16T09:37:47;0.98;;;0.45;;
55069;SDS011;40967;52.070;8.596;2022-10-16T09:40:24;2.57;;;0.60;;
55069;SDS011;40967;52.070;8.596;2022-10-16T09:42:52;1.35;;;0.45;;
55069;SDS011;40967;52.070;8.596;2022-10-16T09:45:43;1.27;;;0.47;;
55069;SDS011;40967;52.070;8.596;2022-10-16T09:48:22;2.22;;;0.50;;
55069;SDS011;40967;52.070;8.596;2022-10-16T09:51:03;0.95;;;0.40;;
55069;SDS011;40967;52.070;8.596;2022-10-16T09:53:45;2.17;;;0.80;;
55069;SDS011;40967;52.070;8.596;2022-10-16T09:56:21;1.88;;;0.60;;
55069;SDS011;40967;52.070;8.596;2022-10-16T09:59:12;2.13;;;0.50;;
55069;SDS011;40967;52.070;8.596;2022-10-16T10:07:27;1.60;;;0.40;;
55069;SDS011;40967;52.070;8.596;2022-10-16T10:09:59;1.50;;;0.50;;
55069;SDS011;40967;52.070;8.596;2022-10-16T10:12:30;4.72;;;0.90;;
55069;SDS011;40967;52.070;8.596;2022-10-16T10:15:09;2.85;;;0.60;;
55069;SDS011;40967;52.070;8.596;2022-10-16T10:17:54;1.63;;;0.55;;
55069;SDS011;40967;52.070;8.596;2022-10-16T10:20:34;1.65;;;0.50;;
55069;SDS011;40967;52.070;8.596;2022-10-16T10:31:52;1.20;;;0.35;;
55069;SDS011;40967;52.070;8.596;2022-10-16T10:47:08;4.63;;;0.60;;
55069;SDS011;40967;52.070;8.596;2022-10-16T10:53:59;1.35;;;0.43;;
55069;SDS011;40967;52.070;8.596;2022-10-16T10:56:16;1.10;;;0.35;;
55069;SDS011;40967;52.070;8.596;2022-10-16T10:59:02;2.45;;;0.50;;
55069;SDS011;40967;52.070;8.596;2022-10-16T11:01:56;1.42;;;0.40;;
55069;SDS011;40967;52.070;8.596;2022-10-16T11:07:52;2.38;;;0.70;;
55069;SDS011;40967;52.070;8.596;2022-10-16T11:10:30;1.42;;;0.57;;
55069;SDS011;40967;52.070;8.596;2022-10-16T11:16:03;1.20;;;0.50;;
55069;SDS011;40967;52.070;8.596;2022-10-16T11:19:08;1.95;;;0.50;;
55069;SDS011;40967;52.070;8.596;2022-10-16T11:21:44;1.50;;;0.38;;
55069;SDS011;40967;52.070;8.596;2022-10-16T11:24:25;1.80;;;0.30;;
55069;SDS011;40967;52.070;8.596;2022-10-16T11:44:53;1.90;;;0.50;;
55069;SDS011;40967;52.070;8.596;2022-10-16T11:47:48;2.72;;;0.70;;
55069;SDS011;40967;52.070;8.596;2022-10-16T11:50:34;1.15;;;0.43;;
55069;SDS011;40967;52.070;8.596;2022-10-16T11:56:15;0.75;;;0.35;;
55069;SDS011;40967;52.070;8.596;2022-10-16T12:08:26;0.90;;;0.40;;
55069;SDS011;40967;52.070;8.596;2022-10-16T12:10:53;1.33;;;0.47;;
55069;SDS011;40967;52.070;8.596;2022-10-16T12:18:47;0.87;;;0.40;;
55069;SDS011;40967;52.070;8.596;2022-10-16T12:21:14;2.17;;;0.55;;
55069;SDS011;40967;52.070;8.596;2022-10-16T12:24:19;0.75;;;0.30;;
55069;SDS011;40967;52.070;8.596;2022-10-16T12:26:54;1.40;;;0.30;;
55069;SDS011;40967;52.070;8.596;2022-10-16T12:29:38;1.75;;;0.43;;
55069;SDS011;40967;52.070;8.596;2022-10-16T12:35:32;0.85;;;0.30;;
55069;SDS011;40967;52.070;8.596;2022-10-16T12:41:00;1.17;;;0.40;;
55069;SDS011;40967;52.070;8.596;2022-10-16T12:52:22;1.65;;;0.38;;
55069;SDS011;40967;52.070;8.596;2022-10-16T12:55:01;1.02;;;0.40;;
55069;SDS011;40967;52.070;8.596;2022-10-16T13:03:24;0.63;;;0.30;;
55069;SDS011;40967;52.070;8.596;2022-10-16T13:06:19;1.85;;;0.70;;
55069;SDS011;40967;52.070;8.596;2022-10-16T13:18:51;1.73;;;0.50;;
55069;SDS011;40967;52.070;8.596;2022-10-16T13:22:03;1.40;;;0.40;;
55069;SDS011;40967;52.070;8.596;2022-10-16T13:24:46;0.57;;;0.22;;
55069;SDS011;40967;52.070;8.596;2022-10-16T13:28:08;1.80;;;0.47;;
55069;SDS011;40967;52.070;8.596;2022-10-16T13:31:19;1.52;;;0.32;;
55069;SDS011;40967;52.070;8.596;2022-10-16T13:33:39;0.88;;;0.40;;
55069;SDS011;40967;52.070;8.596;2022-10-16T13:36:20;0.60;;;0.35;;
55069;SDS011;40967;52.070;8.596;2022-10-16T13:38:49;1.63;;;0.50;;
55069;SDS011;40967;52.070;8.596;2022-10-16T13:41:57;0.73;;;0.30;;
55069;SDS011;40967;52.070;8.596;2022-10-16T13:44:30;0.63;;;0.40;;
55069;SDS011;40967;52.070;8.596;2022-10-16T13:47:23;1.20;;;0.50;;
55069;SDS011;40967;52.070;8.596;2022-10-16T13:50:04;1.20;;;0.40;;
55069;SDS011;40967;52.070;8.596;2022-10-16T13:52:32;0.95;;;0.50;;
55069;SDS011;40967;52.070;8.596;2022-10-16T13:55:04;1.70;;;0.60;;
55069;SDS011;40967;52.070;8.596;2022-10-16T13:58:08;3.03;;;0.60;;
55069;SDS011;40967;52.070;8.596;2022-10-16T14:00:42;1.20;;;0.60;;
55069;SDS011;40967;52.070;8.596;2022-10-16T14:03:33;1.25;;;0.40;;
55069;SDS011;40967;52.070;8.596;2022-10-16T14:06:13;1.35;;;0.50;;
55069;SDS011;40967;52.070;8.596;2022-10-16T14:08:48;1.10;;;0.43;;
55069;SDS011;40967;52.070;8.596;2022-10-16T14:11:48;0.70;;;0.30;;
55069;SDS011;40967;52.070;8.596;2022-10-16T14:14:44;0.90;;;0.40;;
55069;SDS011;40967;52.070;8.596;2022-10-16T14:17:35;0.60;;;0.28;;
55069;SDS011;40967;52.070;8.596;2022-10-16T14:20:25;0.57;;;0.25;;
55069;SDS011;40967;52.070;8.596;2022-10-16T14:23:02;0.40;;;0.30;;
55069;SDS011;40967;52.070;8.596;2022-10-16T14:25:36;0.60;;;0.20;;
55069;SDS011;40967;52.070;8.596;2022-10-16T14:28:22;0.45;;;0.30;;
55069;SDS011;40967;52.070;8.596;2022-10-16T14:30:56;0.90;;;0.30;;
55069;SDS011;40967;52.070;8.596;2022-10-16T14:33:33;0.40;;;0.20;;
55069;SDS011;40967;52.070;8.596;2022-10-16T14:36:05;0.60;;;0.20;;
55069;SDS011;40967;52.070;8.596;2022-10-16T14:38:39;0.50;;;0.28;;
55069;SDS011;40967;52.070;8.596;2022-10-16T14:41:43;0.20;;;0.20;;
55069;SDS011;40967;52.070;8.596;2022-10-16T14:44:35;0.63;;;0.30;;
55069;SDS011;40967;52.070;8.596;2022-10-16T14:47:58;0.40;;;0.15;;
55069;SDS011;40967;52.070;8.596;2022-10-16T14:54:15;0.65;;;0.30;;
55069;SDS011;40967;52.070;8.596;2022-10-16T14:59:42;0.93;;;0.30;;
55069;SDS011;40967;52.070;8.596;2022-10-16T15:04:48;0.50;;;0.10;;
55069;SDS011;40967;52.070;8.596;2022-10-16T15:07:46;0.60;;;0.20;;
55069;SDS011;40967;52.070;8.596;2022-10-16T15:10:12;0.30;;;0.20;;
55069;SDS011;40967;52.070;8.596;2022-10-16T15:12:39;0.10;;;0.10;;
55069;SDS011;40967;52.070;8.596;2022-10-16T15:15:38;0.17;;;0.07;;
55069;SDS011;40967;52.070;8.596;2022-10-16T15:18:04;0.20;;;0.15;;
55069;SDS011;40967;52.070;8.596;2022-10-16T15:20:31;0.20;;;0.10;;
55069;SDS011;40967;52.070;8.596;2022-10-16T15:23:02;0.10;;;0.10;;
55069;SDS011;40967;52.070;8.596;2022-10-16T15:27:54;0.10;;;0.10;;
55069;SDS011;40967;52.070;8.596;2022-10-16T15:30:19;0.20;;;0.17;;
55069;SDS011;40967;52.070;8.596;2022-10-16T15:32:45;0.23;;;0.10;;
55069;SDS011;40967;52.070;8.596;2022-10-16T15:35:10;0.10;;;0.10;;
55069;SDS011;40967;52.070;8.596;2022-10-16T15:37:35;0.10;;;0.10;;
55069;SDS011;40967;52.070;8.596;2022-10-16T15:40:01;0.40;;;0.20;;
55069;SDS011;40967;52.070;8.596;2022-10-16T15:42:26;0.50;;;0.20;;
55069;SDS011;40967;52.070;8.596;2022-10-16T15:44:51;0.20;;;0.10;;
55069;SDS011;40967;52.070;8.596;2022-10-16T15:47:20;0.00;;;0.00;;
55069;SDS011;40967;52.070;8.596;2022-10-16T15:49:45;0.15;;;0.08;;
55069;SDS011;40967;52.070;8.596;2022-10-16T15:52:10;0.10;;;0.10;;
55069;SDS011;40967;52.070;8.596;2022-10-16T15:54:36;0.13;;;0.10;;
55069;SDS011;40967;52.070;8.596;2022-10-16T15:57:01;0.00;;;0.00;;
55069;SDS011;40967;52.070;8.596;2022-10-16T15:59:27;0.00;;;0.00;;
55069;SDS011;40967;52.070;8.596;2022-10-16T16:01:53;0.00;;;0.00;;
55069;SDS011;40967;52.070;8.596;2022-10-16T16:04:42;0.00;;;0.00;;
55069;SDS011;40967;52.070;8.596;2022-10-16T16:07:14;0.00;;;0.00;;
55069;SDS011;40967;52.070;8.596;2022-10-16T16:09:40;0.10;;;0.10;;
55069;SDS011;40967;52.070;8.596;2022-10-16T16:12:09;0.10;;;0.10;;
55069;SDS011;40967;52.070;8.596;2022-10-16T16:14:38;0.20;;;0.10;;
55069;SDS011;40967;52.070;8.596;2022-10-16T16:17:17;0.10;;;0.10;;
55069;SDS011;40967;52.070;8.596;2022-10-16T16:19:43;0.10;;;0.10;;
55069;SDS011;40967;52.070;8.596;2022-10-16T16:22:08;0.23;;;0.10;;
55069;SDS011;40967;52.070;8.596;2022-10-16T16:24:33;0.10;;;0.10;;
55069;SDS011;40967;52.070;8.596;2022-10-16T16:26:59;0.10;;;0.10;;
55069;SDS011;40967;52.070;8.596;2022-10-16T16:29:24;0.13;;;0.10;;
55069;SDS011;40967;52.070;8.596;2022-10-16T16:31:50;0.17;;;0.10;;
55069;SDS011;40967;52.070;8.596;2022-10-16T16:34:21;0.10;;;0.10;;
55069;SDS011;40967;52.070;8.596;2022-10-16T16:36:47;0.10;;;0.10;;
55069;SDS011;40967;52.070;8.596;2022-10-16T16:39:12;0.00;;;0.00;;
55069;SDS011;40967;52.070;8.596;2022-10-16T16:41:38;0.20;;;0.10;;
55069;SDS011;40967;52.070;8.596;2022-10-16T16:44:06;0.10;;;0.10;;
55069;SDS011;40967;52.070;8.596;2022-10-16T16:46:35;0.20;;;0.10;;
55069;SDS011;40967;52.070;8.596;2022-10-16T16:49:01;0.30;;;0.10;;
55069;SDS011;40967;52.070;8.596;2022-10-16T16:51:27;0.40;;;0.20;;
55069;SDS011;40967;52.070;8.596;2022-10-16T16:53:52;0.30;;;0.30;;
55069;SDS011;40967;52.070;8.596;2022-10-16T16:56:19;0.30;;;0.20;;
55069;SDS011;40967;52.070;8.596;2022-10-16T16:58:46;0.40;;;0.20;;
55069;SDS011;40967;52.070;8.596;2022-10-16T17:01:13;0.25;;;0.20;;
55069;SDS011;40967;52.070;8.596;2022-10-16T17:03:41;0.60;;;0.30;;
55069;SDS011;40967;52.070;8.596;2022-10-16T17:06:11;0.35;;;0.22;;
55069;SDS011;40967;52.070;8.596;2022-10-16T17:08:39;0.30;;;0.20;;
55069;SDS011;40967;52.070;8.596;2022-10-16T17:11:05;0.47;;;0.30;;
55069;SDS011;40967;52.070;8.596;2022-10-16T17:13:39;0.98;;;0.50;;
55069;SDS011;40967;52.070;8.596;2022-10-16T17:16:15;0.80;;;0.40;;
55069;SDS011;40967;52.070;8.596;2022-10-16T17:18:46;1.15;;;0.43;;
55069;SDS011;40967;52.070;8.596;2022-10-16T17:21:16;0.85;;;0.50;;
55069;SDS011;40967;52.070;8.596;2022-10-16T17:23:59;0.90;;;0.40;;
55069;SDS011;40967;52.070;8.596;2022-10-16T17:26:28;0.30;;;0.25;;
55069;SDS011;40967;52.070;8.596;2022-10-16T17:29:05;0.63;;;0.40;;
55069;SDS011;40967;52.070;8.596;2022-10-16T17:31:33;0.73;;;0.40;;
55069;SDS011;40967;52.070;8.596;2022-10-16T17:34:04;0.98;;;0.40;;
55069;SDS011;40967;52.070;8.596;2022-10-16T17:36:33;0.60;;;0.40;;
55069;SDS011;40967;52.070;8.596;2022-10-16T17:39:01;0.75;;;0.40;;
55069;SDS011;40967;52.070;8.596;2022-10-16T17:41:29;0.80;;;0.40;;
55069;SDS011;40967;52.070;8.596;2022-10-16T17:44:03;1.00;;;0.40;;
55069;SDS011;40967;52.070;8.596;2022-10-16T17:46:51;0.70;;;0.30;;
55069;SDS011;40967;52.070;8.596;2022-10-16T17:49:18;0.40;;;0.30;;
55069;SDS011;40967;52.070;8.596;2022-10-16T17:51:45;1.08;;;0.60;;
55069;SDS011;40967;52.070;8.596;2022-10-16T17:54:16;0.38;;;0.30;;
55069;SDS011;40967;52.070;8.596;2022-10-16T17:56:54;0.73;;;0.40;;
55069;SDS011;40967;52.070;8.596;2022-10-16T17:59:21;0.65;;;0.40;;
55069;SDS011;40967;52.070;8.596;2022-10-16T18:01:50;0.70;;;0.50;;
55069;SDS011;40967;52.070;8.596;2022-10-16T18:04:29;0.90;;;0.50;;
55069;SDS011;40967;52.070;8.596;2022-10-16T18:06:58;0.63;;;0.40;;